createdAt,value
2019-06-01T00:01:25.939Z,16.70
2019-06-01T00:03:56.685Z,16.60
2019-06-01T00:06:26.995Z,16.60
2019-06-01T00:08:57.373Z,16.50
2019-06-01T00:11:27.707Z,16.50
2019-06-01T00:13:58.088Z,16.40
2019-06-01T00:16:28.507Z,16.40
2019-06-01T00:18:58.855Z,16.30
2019-06-01T00:21:29.207Z,16.30
2019-06-01T00:23:59.679Z,16.20
2019-06-01T00:26:30.064Z,16.20
2019-06-01T00:29:00.467Z,16.10
2019-06-01T00:31:30.864Z,16.10
2019-06-01T00:34:01.309Z,16.10
2019-06-01T00:36:31.696Z,16.00
2019-06-01T00:39:02.075Z,16.00
2019-06-01T00:41:34.332Z,15.90
2019-06-01T00:44:05.024Z,15.90
2019-06-01T00:46:35.696Z,15.90
2019-06-01T00:49:06.087Z,15.80
2019-06-01T00:51:37.258Z,15.90
2019-06-01T00:54:07.640Z,15.90
2019-06-01T00:56:38.065Z,15.80
2019-06-01T00:59:08.482Z,15.90
2019-06-01T01:01:38.772Z,15.90
2019-06-01T01:04:09.138Z,15.90
2019-06-01T01:06:39.469Z,15.80
2019-06-01T01:09:09.879Z,15.80
2019-06-01T01:11:40.251Z,15.80
2019-06-01T01:14:10.595Z,15.70
2019-06-01T01:16:40.947Z,15.70
2019-06-01T01:19:11.339Z,15.70
2019-06-01T01:21:41.749Z,15.70
2019-06-01T01:24:12.108Z,15.70
2019-06-01T01:26:42.455Z,15.60
2019-06-01T01:29:12.894Z,15.60
2019-06-01T01:31:44.534Z,15.50
2019-06-01T01:34:14.878Z,15.40
2019-06-01T01:36:45.277Z,15.40
2019-06-01T01:39:15.625Z,15.40
2019-06-01T01:41:46.119Z,15.30
2019-06-01T01:44:16.537Z,15.30
2019-06-01T01:46:46.865Z,15.30
2019-06-01T01:49:17.222Z,15.30
2019-06-01T01:51:47.605Z,15.30
2019-06-01T01:54:17.924Z,15.30
2019-06-01T01:56:48.275Z,15.30
2019-06-01T01:59:18.752Z,15.30
2019-06-01T02:01:48.937Z,15.30
2019-06-01T02:04:19.295Z,15.30
2019-06-01T02:06:49.619Z,15.20
2019-06-01T02:09:20.111Z,15.10
2019-06-01T02:11:51.398Z,15.10
2019-06-01T02:14:21.775Z,15.00
2019-06-01T02:16:52.195Z,15.00
2019-06-01T02:19:22.553Z,15.00
2019-06-01T02:21:52.873Z,15.00
2019-06-01T02:24:23.347Z,15.00
2019-06-01T02:26:55.015Z,14.90
2019-06-01T02:29:25.552Z,14.90
2019-06-01T02:31:56.662Z,14.90
2019-06-01T02:34:28.442Z,14.90
2019-06-01T02:37:00.104Z,14.90
2019-06-01T02:39:30.759Z,14.90
2019-06-01T02:42:01.790Z,14.90
2019-06-01T02:44:33.211Z,15.00
2019-06-01T02:47:04.581Z,15.10
2019-06-01T02:49:35.902Z,15.10
2019-06-01T02:52:06.320Z,15.10
2019-06-01T02:54:36.683Z,15.10
2019-06-01T02:57:07.605Z,15.10
2019-06-01T02:59:37.968Z,15.10
2019-06-01T03:02:13.392Z,15.20
2019-06-01T03:04:41.991Z,15.20
2019-06-01T03:07:14.605Z,15.30
2019-06-01T03:09:46.105Z,15.40
2019-06-01T03:12:19.407Z,15.40
2019-06-01T03:14:51.591Z,15.40
2019-06-01T03:17:24.798Z,15.50
2019-06-01T03:19:57.487Z,15.50
2019-06-01T03:22:28.947Z,15.50
2019-06-01T03:25:03.817Z,15.50
2019-06-01T03:27:36.499Z,15.60
2019-06-01T03:30:09.815Z,15.60
2019-06-01T03:32:39.717Z,15.60
2019-06-01T03:35:10.503Z,15.60
2019-06-01T03:37:40.841Z,15.60
2019-06-01T03:40:23.159Z,15.70
2019-06-01T03:42:43.183Z,15.70
2019-06-01T03:45:13.925Z,15.70
2019-06-01T03:47:44.435Z,15.80
2019-06-01T03:50:14.745Z,15.80
2019-06-01T03:52:45.175Z,15.90
2019-06-01T03:55:15.549Z,16.00
2019-06-01T03:57:45.883Z,16.10
2019-06-01T04:00:16.519Z,16.20
2019-06-01T04:02:46.787Z,16.30
2019-06-01T04:05:17.209Z,16.40
2019-06-01T04:07:47.554Z,16.40
2019-06-01T04:10:17.905Z,16.60
2019-06-01T04:12:48.287Z,16.80
2019-06-01T04:15:18.721Z,17.00
2019-06-01T04:17:49.104Z,17.10
2019-06-01T04:20:19.638Z,17.30
2019-06-01T04:22:49.989Z,17.80
2019-06-01T04:25:20.339Z,18.00
2019-06-01T04:27:50.746Z,18.00
2019-06-01T04:30:25.706Z,17.90
2019-06-01T04:32:56.069Z,17.90
2019-06-01T04:35:26.484Z,17.90
2019-06-01T04:37:56.867Z,17.90
2019-06-01T04:40:27.223Z,18.10
2019-06-01T04:42:57.531Z,18.00
2019-06-01T04:45:27.917Z,18.00
2019-06-01T04:47:58.666Z,18.00
2019-06-01T04:50:29.057Z,18.00
2019-06-01T04:52:59.782Z,18.10
2019-06-01T04:55:30.198Z,18.30
2019-06-01T04:58:00.526Z,18.70
2019-06-01T05:00:30.898Z,19.30
2019-06-01T05:03:05.489Z,19.90
2019-06-01T05:05:33.307Z,20.50
2019-06-01T05:08:05.212Z,21.00
2019-06-01T05:10:35.878Z,21.10
2019-06-01T05:13:07.535Z,21.00
2019-06-01T05:15:37.853Z,20.90
2019-06-01T05:18:08.256Z,20.80
2019-06-01T05:20:38.557Z,20.80
2019-06-01T05:23:08.974Z,20.70
2019-06-01T05:25:39.319Z,20.50
2019-06-01T05:28:11.105Z,20.60
2019-06-01T05:30:42.769Z,20.60
2019-06-01T05:33:31.038Z,20.70
2019-06-01T05:35:45.565Z,21.30
2019-06-01T05:38:16.555Z,21.30
2019-06-01T05:40:47.205Z,21.30
2019-06-01T05:43:19.357Z,21.20
2019-06-01T05:45:49.534Z,21.20
2019-06-01T05:48:24.811Z,21.10
2019-06-01T05:50:51.932Z,21.00
2019-06-01T05:53:23.123Z,20.80
2019-06-01T05:55:54.772Z,20.60
2019-06-01T05:58:29.122Z,20.50
2019-06-01T06:00:58.122Z,20.40
2019-06-01T06:03:39.863Z,20.40
2019-06-01T06:06:00.505Z,20.50
2019-06-01T06:08:30.926Z,20.70
2019-06-01T06:11:02.650Z,20.90
2019-06-01T06:13:33.003Z,21.20
2019-06-01T06:16:03.390Z,21.30
2019-06-01T06:18:33.667Z,21.60
2019-06-01T06:21:04.072Z,21.70
2019-06-01T06:23:34.409Z,21.70
2019-06-01T06:26:04.797Z,21.60
2019-06-01T06:28:35.178Z,21.60
2019-06-01T06:31:05.531Z,21.60
2019-06-01T06:33:37.110Z,22.00
2019-06-01T06:36:07.699Z,22.00
2019-06-01T06:38:38.028Z,22.70
2019-06-01T06:41:08.369Z,23.10
2019-06-01T06:43:39.712Z,23.50
2019-06-01T06:46:10.019Z,24.10
2019-06-01T06:48:40.530Z,24.40
2019-06-01T06:51:10.932Z,24.40
2019-06-01T06:53:41.258Z,24.50
2019-06-01T06:56:11.625Z,24.50
2019-06-01T06:58:41.996Z,24.70
2019-06-01T07:01:12.336Z,25.10
2019-06-01T07:03:42.890Z,25.60
2019-06-01T07:06:13.192Z,25.90
2019-06-01T07:08:43.651Z,26.20
2019-06-01T07:11:13.961Z,26.40
2019-06-01T07:13:44.324Z,26.60
2019-06-01T07:16:14.693Z,26.80
2019-06-01T07:18:45.020Z,27.00
2019-06-01T07:21:16.718Z,27.20
2019-06-01T07:23:47.114Z,27.50
2019-06-01T07:26:17.486Z,27.70
2019-06-01T07:28:47.808Z,27.70
2019-06-01T07:31:18.175Z,27.80
2019-06-01T07:33:48.576Z,27.70
2019-06-01T07:36:20.167Z,27.90
2019-06-01T07:38:51.309Z,27.70
2019-06-01T07:41:22.570Z,27.30
2019-06-01T07:43:53.166Z,26.90
2019-06-01T07:46:24.815Z,26.50
2019-06-01T07:48:55.510Z,26.80
2019-06-01T07:51:27.347Z,27.00
2019-06-01T07:53:57.807Z,27.00
2019-06-01T07:56:28.654Z,26.50
2019-06-01T07:58:59.158Z,26.10
2019-06-01T08:01:30.940Z,25.60
2019-06-01T08:04:01.561Z,25.20
2019-06-01T08:06:32.798Z,24.60
2019-06-01T08:09:03.466Z,24.70
2019-06-01T08:11:35.165Z,25.20
2019-06-01T08:14:05.769Z,25.60
2019-06-01T08:16:36.123Z,25.80
2019-06-01T08:19:07.821Z,25.60
2019-06-01T08:21:38.175Z,25.20
2019-06-01T08:24:10.150Z,25.00
2019-06-01T08:26:40.471Z,24.90
2019-06-01T08:29:10.889Z,24.70
2019-06-01T08:31:41.256Z,25.20
2019-06-01T08:34:11.935Z,25.70
2019-06-01T08:36:42.289Z,25.90
2019-06-01T08:39:12.634Z,25.90
2019-06-01T08:41:43.265Z,26.00
2019-06-01T08:44:13.907Z,26.30
2019-06-01T08:46:44.263Z,26.70
2019-06-01T08:49:15.400Z,27.20
2019-06-01T08:51:45.727Z,27.50
2019-06-01T08:54:16.149Z,27.80
2019-06-01T08:56:46.918Z,28.40
2019-06-01T08:59:17.691Z,28.60
2019-06-01T09:01:48.051Z,28.20
2019-06-01T09:04:18.444Z,27.60
2019-06-01T09:06:49.178Z,27.30
2019-06-01T09:09:19.519Z,27.50
2019-06-01T09:11:49.945Z,27.70
2019-06-01T09:14:20.284Z,28.30
2019-06-01T09:16:50.677Z,28.70
2019-06-01T09:19:21.976Z,29.20
2019-06-01T09:21:52.572Z,29.70
2019-06-01T09:24:22.920Z,30.10
2019-06-01T09:26:53.228Z,29.80
2019-06-01T09:29:25.744Z,29.50
2019-06-01T09:31:56.348Z,29.20
2019-06-01T09:34:26.691Z,28.80
2019-06-01T09:36:57.082Z,28.80
2019-06-01T09:39:27.378Z,29.20
2019-06-01T09:41:57.694Z,29.70
2019-06-01T09:44:28.859Z,29.90
2019-06-01T09:47:00.632Z,30.10
2019-06-01T09:49:32.619Z,30.20
2019-06-01T09:52:03.284Z,30.40
2019-06-01T09:54:36.298Z,30.80
2019-06-01T09:57:06.894Z,31.20
2019-06-01T09:59:38.188Z,31.20
2019-06-01T10:02:10.182Z,31.60
2019-06-01T10:04:41.360Z,31.80
2019-06-01T10:07:11.711Z,31.90
2019-06-01T10:09:42.227Z,31.90
2019-06-01T10:12:12.858Z,31.80
2019-06-01T10:14:43.161Z,31.80
2019-06-01T10:17:13.556Z,31.80
2019-06-01T10:19:43.839Z,31.70
2019-06-01T10:22:15.004Z,31.90
2019-06-01T10:24:45.322Z,32.20
2019-06-01T10:27:15.709Z,32.40
2019-06-01T10:29:45.950Z,32.50
2019-06-01T10:32:16.236Z,32.50
2019-06-01T10:34:46.612Z,31.50
2019-06-01T10:37:16.966Z,30.50
2019-06-01T10:39:47.764Z,30.40
2019-06-01T10:42:18.129Z,30.80
2019-06-01T10:44:48.474Z,31.00
2019-06-01T10:47:18.838Z,31.30
2019-06-01T10:49:49.154Z,31.50
2019-06-01T10:52:19.690Z,31.70
2019-06-01T10:54:50.106Z,32.20
2019-06-01T10:57:20.808Z,32.50
2019-06-01T10:59:51.474Z,32.60
2019-06-01T11:02:21.910Z,32.50
2019-06-01T11:04:52.575Z,32.10
2019-06-01T11:07:24.200Z,31.70
2019-06-01T11:09:54.570Z,31.30
2019-06-01T11:12:24.968Z,31.30
2019-06-01T11:14:55.561Z,31.50
2019-06-01T11:17:26.695Z,30.80
2019-06-01T11:19:57.036Z,30.70
2019-06-01T11:22:27.437Z,30.80
2019-06-01T11:24:58.046Z,31.30
2019-06-01T11:27:28.415Z,31.40
2019-06-01T11:29:58.760Z,31.60
2019-06-01T11:32:29.163Z,31.90
2019-06-01T11:34:59.732Z,32.00
2019-06-01T11:37:30.493Z,31.90
2019-06-01T11:40:00.850Z,31.20
2019-06-01T11:42:31.479Z,30.60
2019-06-01T11:45:01.825Z,30.40
2019-06-01T11:47:32.202Z,30.80
2019-06-01T11:50:02.564Z,31.20
2019-06-01T11:52:32.910Z,31.40
2019-06-01T11:55:03.339Z,31.40
2019-06-01T11:57:34.988Z,31.40
2019-06-01T12:00:08.672Z,31.20
2019-06-01T12:02:39.696Z,31.00
2019-06-01T12:05:11.254Z,30.90
2019-06-01T12:07:41.934Z,30.90
2019-06-01T12:10:12.881Z,30.50
2019-06-01T12:12:44.319Z,30.00
2019-06-01T12:15:15.535Z,29.90
2019-06-01T12:17:47.350Z,29.40
2019-06-01T12:20:18.133Z,29.10
2019-06-01T12:22:48.473Z,29.40
2019-06-01T12:25:19.243Z,29.70
2019-06-01T12:27:49.661Z,30.00
2019-06-01T12:30:21.585Z,30.30
2019-06-01T12:32:52.185Z,30.20
2019-06-01T12:35:22.538Z,29.90
2019-06-01T12:38:05.386Z,30.00
2019-06-01T12:40:24.898Z,30.40
2019-06-01T12:42:55.220Z,30.10
2019-06-01T12:45:25.530Z,29.60
2019-06-01T12:47:58.612Z,28.90
2019-06-01T12:50:29.057Z,28.20
2019-06-01T12:52:59.504Z,27.80
2019-06-01T12:55:29.936Z,27.60
2019-06-01T12:58:00.275Z,27.30
2019-06-01T13:00:30.852Z,26.70
2019-06-01T13:03:07.417Z,26.30
2019-06-01T13:05:33.372Z,26.10
2019-06-01T13:08:03.728Z,25.90
2019-06-01T13:10:34.102Z,25.70
2019-06-01T13:13:04.996Z,25.40
2019-06-01T13:15:35.319Z,25.30
2019-06-01T13:18:05.665Z,25.30
2019-06-01T13:20:36.016Z,25.30
2019-06-01T13:23:06.373Z,25.20
2019-06-01T13:25:36.767Z,25.00
2019-06-01T13:28:07.499Z,25.00
2019-06-01T13:30:37.834Z,24.90
2019-06-01T13:33:08.212Z,24.80
2019-06-01T13:35:38.584Z,24.70
2019-06-01T13:38:12.408Z,24.70
2019-06-01T13:40:40.867Z,24.70
2019-06-01T13:43:11.299Z,24.80
2019-06-01T13:45:43.040Z,24.90
2019-06-01T13:48:13.525Z,24.90
2019-06-01T13:50:43.944Z,24.90
2019-06-01T13:53:14.355Z,24.70
2019-06-01T13:55:46.050Z,24.60
2019-06-01T13:58:16.630Z,24.60
2019-06-01T14:00:48.303Z,24.50
2019-06-01T14:03:18.944Z,24.60
2019-06-01T14:05:50.891Z,24.60
2019-06-01T14:08:28.865Z,24.50
2019-06-01T14:10:53.734Z,24.50
2019-06-01T14:13:24.105Z,24.50
2019-06-01T14:15:55.622Z,24.50
2019-06-01T14:18:26.350Z,24.50
2019-06-01T14:20:57.906Z,24.50
2019-06-01T14:23:28.361Z,24.50
2019-06-01T14:25:58.758Z,24.50
2019-06-01T14:28:29.094Z,24.50
2019-06-01T14:30:59.437Z,24.40
2019-06-01T14:33:29.804Z,24.20
2019-06-01T14:36:00.171Z,24.10
2019-06-01T14:38:45.999Z,24.10
2019-06-01T14:41:02.554Z,24.10
2019-06-01T14:43:33.034Z,24.30
2019-06-01T14:46:03.368Z,24.40
2019-06-01T14:48:33.742Z,24.40
2019-06-01T14:51:04.290Z,24.40
2019-06-01T14:53:35.517Z,24.40
2019-06-01T14:56:05.900Z,24.40
2019-06-01T14:58:36.373Z,24.50
2019-06-01T15:01:07.188Z,24.50
2019-06-01T15:03:37.549Z,24.50
2019-06-01T15:06:07.929Z,24.50
2019-06-01T15:08:38.316Z,24.50
2019-06-01T15:11:08.663Z,24.50
2019-06-01T15:13:39.061Z,24.50
2019-06-01T15:16:09.457Z,24.50
2019-06-01T15:18:39.888Z,24.40
2019-06-01T15:21:10.207Z,24.30
2019-06-01T15:23:40.590Z,24.10
2019-06-01T15:26:10.939Z,24.00
2019-06-01T15:28:41.425Z,24.00
2019-06-01T15:31:11.805Z,23.90
2019-06-01T15:33:42.177Z,23.80
2019-06-01T15:36:12.494Z,23.80
2019-06-01T15:38:42.883Z,23.70
2019-06-01T15:41:13.252Z,23.70
2019-06-01T15:43:43.607Z,23.70
2019-06-01T15:46:14.902Z,23.70
2019-06-01T15:48:45.293Z,23.70
2019-06-01T15:51:16.913Z,23.60
2019-06-01T15:53:47.250Z,23.50
2019-06-01T15:56:17.753Z,23.40
2019-06-01T15:58:52.831Z,23.40
2019-06-01T16:01:20.199Z,23.40
2019-06-01T16:03:50.673Z,23.40
2019-06-01T16:06:21.612Z,23.50
2019-06-01T16:08:53.169Z,23.40
2019-06-01T16:11:23.795Z,23.40
2019-06-01T16:13:55.598Z,23.30
2019-06-01T16:16:26.060Z,23.30
2019-06-01T16:18:59.843Z,23.20
2019-06-01T16:21:28.419Z,23.20
2019-06-01T16:23:58.788Z,23.30
2019-06-01T16:26:29.269Z,23.30
2019-06-01T16:29:00.501Z,23.30
2019-06-01T16:31:31.104Z,23.30
2019-06-01T16:34:02.749Z,23.20
2019-06-01T16:36:34.463Z,23.10
2019-06-01T16:39:08.090Z,23.10
2019-06-01T16:41:39.232Z,23.10
2019-06-01T16:44:09.615Z,23.00
2019-06-01T16:46:40.005Z,23.00
2019-06-01T16:49:10.361Z,23.00
2019-06-01T16:51:51.642Z,23.00
2019-06-01T16:54:22.497Z,23.00
2019-06-01T16:56:53.147Z,23.00
2019-06-01T16:59:23.928Z,23.00
2019-06-01T17:01:54.508Z,23.00
2019-06-01T17:04:26.221Z,23.00
2019-06-01T17:06:56.621Z,23.00
2019-06-01T17:09:27.215Z,23.00
2019-06-01T17:11:58.676Z,23.00
2019-06-01T17:14:29.553Z,23.00
2019-06-01T17:17:00.979Z,22.90
2019-06-01T17:19:31.734Z,22.90
2019-06-01T17:22:03.490Z,22.90
2019-06-01T17:24:34.021Z,22.80
2019-06-01T17:27:04.379Z,22.70
2019-06-01T17:29:34.719Z,22.60
2019-06-01T17:32:20.240Z,22.50
2019-06-01T17:34:37.030Z,22.50
2019-06-01T17:37:08.870Z,22.40
2019-06-01T17:39:39.452Z,22.40
2019-06-01T17:42:09.763Z,22.30
2019-06-01T17:44:40.515Z,22.30
2019-06-01T17:47:12.134Z,22.30
2019-06-01T17:49:42.687Z,22.20
2019-06-01T17:52:13.053Z,22.20
2019-06-01T17:54:44.473Z,22.20
2019-06-01T17:57:14.819Z,22.10
2019-06-01T17:59:45.186Z,22.10
2019-06-01T18:02:15.610Z,22.10
2019-06-01T18:04:45.969Z,22.10
2019-06-01T18:07:16.293Z,22.00
2019-06-01T18:09:47.001Z,22.00
2019-06-01T18:12:18.761Z,21.90
2019-06-01T18:14:49.071Z,21.90
2019-06-01T18:17:19.449Z,21.90
2019-06-01T18:19:49.773Z,21.80
2019-06-01T18:22:20.146Z,21.80
2019-06-01T18:24:50.799Z,21.80
2019-06-01T18:27:21.169Z,21.80
2019-06-01T18:29:51.586Z,21.80
2019-06-01T18:32:23.191Z,21.70
2019-06-01T18:34:53.537Z,21.70
2019-06-01T18:37:23.939Z,21.60
2019-06-01T18:39:54.269Z,21.60
2019-06-01T18:42:28.584Z,21.60
2019-06-01T18:44:59.484Z,21.50
2019-06-01T18:47:32.542Z,21.50
2019-06-01T18:50:03.033Z,21.50
2019-06-01T18:52:35.133Z,21.40
2019-06-01T18:55:08.333Z,21.40
2019-06-01T18:57:42.473Z,21.30
2019-06-01T19:00:15.627Z,21.30
2019-06-01T19:02:46.170Z,21.20
2019-06-01T19:05:17.055Z,21.20
2019-06-01T19:07:47.529Z,21.20
2019-06-01T19:10:18.358Z,21.10
2019-06-01T19:12:48.747Z,21.00
2019-06-01T19:15:26.705Z,21.00
2019-06-01T19:17:51.453Z,21.00
2019-06-01T19:20:21.831Z,20.90
2019-06-01T19:22:52.804Z,20.90
2019-06-01T19:25:23.150Z,20.90
2019-06-01T19:27:53.655Z,20.90
2019-06-01T19:30:38.867Z,20.80
2019-06-01T19:33:14.287Z,20.80
2019-06-01T19:35:43.083Z,20.70
2019-06-01T19:38:13.586Z,20.60
2019-06-01T19:40:44.325Z,20.60
2019-06-01T19:43:15.668Z,20.60
2019-06-01T19:45:46.272Z,20.50
2019-06-01T19:48:18.159Z,20.50
2019-06-01T19:50:48.958Z,20.50
2019-06-01T19:53:19.607Z,20.50
2019-06-01T19:55:49.970Z,20.50
2019-06-01T19:58:20.310Z,20.50
2019-06-01T20:00:50.707Z,20.50
2019-06-01T20:03:23.481Z,20.50
2019-06-01T20:05:53.003Z,20.40
2019-06-01T20:08:23.372Z,20.40
2019-06-01T20:10:53.699Z,20.40
2019-06-01T20:13:24.945Z,20.40
2019-06-01T20:15:55.304Z,20.40
2019-06-01T20:18:25.671Z,20.30
2019-06-01T20:23:38.358Z,20.20
2019-06-01T20:26:08.679Z,20.10
2019-06-01T20:28:39.109Z,20.20
2019-06-01T20:31:09.493Z,20.10
2019-06-01T20:33:39.887Z,20.10
2019-06-01T20:36:10.421Z,20.10
2019-06-01T20:38:41.019Z,20.10
2019-06-01T20:41:12.834Z,20.00
2019-06-01T20:43:43.834Z,20.00
2019-06-01T20:46:14.660Z,20.00
2019-06-01T20:48:45.093Z,20.00
2019-06-01T20:51:16.695Z,20.00
2019-06-01T20:53:47.227Z,20.00
2019-06-01T20:56:17.596Z,20.00
2019-06-01T20:58:47.989Z,20.00
2019-06-01T21:01:19.685Z,20.00
2019-06-01T21:03:50.133Z,20.00
2019-06-01T21:06:20.896Z,20.00
2019-06-01T21:08:52.490Z,20.00
2019-06-01T21:11:22.840Z,19.90
2019-06-01T21:13:53.211Z,19.90
2019-06-01T21:16:24.813Z,19.90
2019-06-01T21:18:56.532Z,19.90
2019-06-01T21:21:26.944Z,19.90
2019-06-01T21:23:57.652Z,19.90
2019-06-01T21:26:28.130Z,19.80
2019-06-01T21:28:58.444Z,19.80
2019-06-01T21:31:28.885Z,19.80
2019-06-01T21:33:59.457Z,19.80
2019-06-01T21:36:29.890Z,19.80
2019-06-01T21:39:00.571Z,19.80
2019-06-01T21:41:32.215Z,19.80
2019-06-01T21:44:02.531Z,19.80
2019-06-01T21:46:32.888Z,19.80
2019-06-01T21:49:03.253Z,19.80
2019-06-01T21:51:33.639Z,19.70
2019-06-01T21:54:04.219Z,19.70
2019-06-01T21:56:34.604Z,19.70
2019-06-01T21:59:05.189Z,19.70
2019-06-01T22:01:35.735Z,19.70
2019-06-01T22:04:06.069Z,19.70
2019-06-01T22:06:36.629Z,19.70
2019-06-01T22:09:08.385Z,19.70
2019-06-01T22:11:38.972Z,19.80
2019-06-01T22:14:09.384Z,19.70
2019-06-01T22:16:39.727Z,19.70
2019-06-01T22:19:10.088Z,19.70
2019-06-01T22:21:40.435Z,19.70
2019-06-01T22:24:10.844Z,19.60
2019-06-01T22:26:41.214Z,19.60
2019-06-01T22:29:11.560Z,19.60
2019-06-01T22:31:41.909Z,19.60
2019-06-01T22:34:12.237Z,19.50
2019-06-01T22:36:42.590Z,19.50
2019-06-01T22:39:12.931Z,19.50
2019-06-01T22:41:43.308Z,19.40
2019-06-01T22:44:13.612Z,19.40
2019-06-01T22:46:43.958Z,19.30
2019-06-01T22:49:14.768Z,19.30
2019-06-01T22:51:45.117Z,19.30
2019-06-01T22:54:15.473Z,19.30
2019-06-01T22:56:45.932Z,19.30
2019-06-01T22:59:18.203Z,19.30
2019-06-01T23:01:48.583Z,19.30
2019-06-01T23:04:18.906Z,19.30
2019-06-01T23:06:49.307Z,19.30
2019-06-01T23:09:20.968Z,19.20
2019-06-01T23:11:51.338Z,19.20
2019-06-01T23:14:21.707Z,19.10
2019-06-01T23:16:52.608Z,19.10
2019-06-01T23:19:23.764Z,19.00
2019-06-01T23:21:54.396Z,19.00
2019-06-01T23:24:24.636Z,18.90
2019-06-01T23:26:55.044Z,18.90
2019-06-01T23:29:26.097Z,18.80
2019-06-01T23:31:56.481Z,18.80
2019-06-01T23:34:26.826Z,18.80
2019-06-01T23:36:57.238Z,18.80
2019-06-01T23:39:28.706Z,18.70
2019-06-01T23:41:59.246Z,18.70
2019-06-01T23:44:32.490Z,18.70
2019-06-01T23:47:01.490Z,18.60
2019-06-01T23:49:31.835Z,18.60
2019-06-01T23:52:02.404Z,18.50
2019-06-01T23:54:33.949Z,18.50
2019-06-01T23:57:05.037Z,18.40
2019-06-01T23:59:35.390Z,18.40
